Terminal Aerodrome Forecast
Issued by NWS Jacksonville, FL

Current Version | Previous Version | Text Only | Print | Product List | Glossary On
Versions: 1 2 3 4 5 6 7 8 9 10 11 12 13
665
FTUS42 KJAX 101728
TAFJAX
TAF
KJAX 101728Z 1018/1118 28017G26KT P6SM SKC
     FM102200 28010G18KT P6SM SKC
     FM110000 27004KT P6SM SKC
     FM111400 32006KT P6SM SKC=

USA.gov is the U.S. government's official web portal to all federal, state and local government web resources and services.